Terminal Aerodrome Forecast
Issued by NWS

Home | Current Version | Previous Version | Text Only | Print | Product List | Glossary On
Versions: 1 2 3 4 5 6 7 8 9 10 11 12 13 14 15 16 17
771
FTUS43 KGRB 290134 AAA
TAFAUW
TAF AMD
KAUW 290134Z 2902/2924 17011KT P6SM SCT012 BKN040 WS020/23035KT
      TEMPO 2902/2904 4SM -SHRA BKN012
     FM290400 20009KT P6SM BKN025 WS020/25035KT
     FM291000 24010G15KT P6SM BKN030
     FM291500 27012G18KT P6SM BKN040=

USA.gov is the U.S. government's official web portal to all federal, state and local government web resources and services.